Rain radar more information rain snow radar


Visit our other weather sites:

Template documentation
and downloads

And another site



Nearby METAR Reports

   
KTIW - Tacoma, Washington, USA
Distance from station: W 7 mi
Updated: Apr 22 2021 5:53 am
Overcast  
Overcast  
   Wind: South 6.9 mph
Wind: South 6.9 mph
Temperature: 46.4°F
Wind Chill: 42.8°F
Dew Point: 41°F
Humidity: 82%
Barometer: 29.93 inHg
Clouds: Overcast
Visibility: 10 mi
Cloud details: Overcast 488 m
KTIW 221253Z AUTO 19006KT 10SM OVC016 08/05 A2993 RMK AO2 SLP133 T00780050
KTCM - Tacoma/Mc Chord, Washington, USA
Distance from station: S 9 mi
Updated: Apr 22 2021 5:58 am
Overcast  
Overcast  
   Wind: SSW 6.9 mph
Wind: SSW 6.9 mph
Temperature: 48.2°F
Wind Chill: 44.6°F
Dew Point: 42.8°F
Humidity: 82%
Barometer: 29.93 inHg
Clouds: Overcast
Visibility: 10 mi
Cloud details: Overcast 549 m
KTCM 221258Z AUTO 21006KT 10SM OVC018 09/06 A2993 RMK AO2 CIG 017 RWY16 SLP139 T00900059 $
KSEA - Seattle/Metro, Washington, USA
Distance from station: NNE 15 mi
Updated: Apr 22 2021 5:53 am
Overcast  
Overcast  
   Wind: South 6.9 mph
Wind: South 6.9 mph
Temperature: 48.2°F
Wind Chill: 44.6°F
Dew Point: 42.8°F
Humidity: 82%
Barometer: 29.92 inHg
Clouds: Overcast
Visibility: 10 mi
Cloud details: Overcast 396 m
KSEA 221253Z 19006KT 10SM OVC013 09/06 A2992 RMK AO2 SLP137 T00940061
KBFI - Seattle/Boeing, Washington, USA
Distance from station: NNE 21 mi
Updated: Apr 22 2021 5:53 am
Overcast  
Overcast  
   Wind: South 8.1 mph
Wind: South 8.1 mph
Temperature: 48.2°F
Wind Chill: 44.6°F
Dew Point: 42.8°F
Humidity: 82%
Barometer: 29.93 inHg
Clouds: Overcast
Visibility: 10 mi
Cloud details: Overcast 518 m
KBFI 221253Z 18007KT 10SM OVC017 09/06 A2993 RMK AO2 SLP135 T00940056
KOLM - Olympia, Washington, USA
Distance from station: SW 29 mi
Updated: Apr 22 2021 5:54 am
Overcast  
Overcast  
   Wind: South 8.1 mph
Wind: South 8.1 mph
Temperature: 46.4°F
Wind Chill: 42.8°F
Dew Point: 42.8°F
Humidity: 87%
Barometer: 29.92 inHg
Clouds: Overcast
Visibility: 10 mi
Cloud details: Overcast 610 m
KOLM 221254Z AUTO 18007KT 10SM OVC020 08/06 A2992 RMK AO2 SLP133 T00830061
 

Script developed by  Saratoga-weather.org Adapted for the template by  Weerstation Leuven

You find our weather info also at:

Weather Underground

WeatherlinkIP

Citizen Weather Observer Program (CWOP)

Equipment we use:

Weather-station
Davis VP2

Weather-program
Meteobridge

Provider
MDD Hosting

Davis VP2

Meteobridge

MDD Hosting